sensor_id;sensor_type;location;lat;lon;timestamp;P1;durP1;ratioP1;P2;durP2;ratioP2
8626;SDS011;4351;51.422;6.794;2023-08-30T00:00:57;8.83;;;7.10;;
8626;SDS011;4351;51.422;6.794;2023-08-30T00:03:24;11.17;;;6.87;;
8626;SDS011;4351;51.422;6.794;2023-08-30T00:05:53;11.00;;;7.73;;
8626;SDS011;4351;51.422;6.794;2023-08-30T00:08:21;11.00;;;6.57;;
8626;SDS011;4351;51.422;6.794;2023-08-30T00:10:51;11.03;;;6.97;;
8626;SDS011;4351;51.422;6.794;2023-08-30T00:13:19;9.93;;;7.37;;
8626;SDS011;4351;51.422;6.794;2023-08-30T00:15:46;9.40;;;6.30;;
8626;SDS011;4351;51.422;6.794;2023-08-30T00:18:14;9.20;;;6.33;;
8626;SDS011;4351;51.422;6.794;2023-08-30T00:20:42;8.03;;;6.20;;
8626;SDS011;4351;51.422;6.794;2023-08-30T00:23:10;8.20;;;6.20;;
8626;SDS011;4351;51.422;6.794;2023-08-30T00:25:38;10.77;;;6.70;;
8626;SDS011;4351;51.422;6.794;2023-08-30T00:28:07;9.83;;;6.63;;
8626;SDS011;4351;51.422;6.794;2023-08-30T00:30:35;9.30;;;6.63;;
8626;SDS011;4351;51.422;6.794;2023-08-30T00:33:03;7.70;;;6.50;;
8626;SDS011;4351;51.422;6.794;2023-08-30T00:35:31;10.93;;;7.60;;
8626;SDS011;4351;51.422;6.794;2023-08-30T00:37:59;12.87;;;7.50;;
8626;SDS011;4351;51.422;6.794;2023-08-30T00:40:28;11.17;;;7.47;;
8626;SDS011;4351;51.422;6.794;2023-08-30T00:42:56;11.73;;;7.17;;
8626;SDS011;4351;51.422;6.794;2023-08-30T00:45:26;10.03;;;6.10;;
8626;SDS011;4351;51.422;6.794;2023-08-30T00:47:54;9.07;;;6.67;;
8626;SDS011;4351;51.422;6.794;2023-08-30T00:50:23;8.87;;;7.27;;
8626;SDS011;4351;51.422;6.794;2023-08-30T00:52:52;9.73;;;7.30;;
8626;SDS011;4351;51.422;6.794;2023-08-30T00:55:20;11.20;;;7.80;;
8626;SDS011;4351;51.422;6.794;2023-08-30T00:57:48;9.40;;;7.13;;
8626;SDS011;4351;51.422;6.794;2023-08-30T01:00:16;8.77;;;7.20;;
8626;SDS011;4351;51.422;6.794;2023-08-30T01:02:47;12.20;;;7.60;;
8626;SDS011;4351;51.422;6.794;2023-08-30T01:05:15;9.80;;;6.77;;
8626;SDS011;4351;51.422;6.794;2023-08-30T01:07:44;9.33;;;7.10;;
8626;SDS011;4351;51.422;6.794;2023-08-30T01:10:12;11.63;;;7.57;;
8626;SDS011;4351;51.422;6.794;2023-08-30T01:12:40;10.73;;;8.63;;
8626;SDS011;4351;51.422;6.794;2023-08-30T01:15:11;10.53;;;8.47;;
8626;SDS011;4351;51.422;6.794;2023-08-30T01:17:43;11.30;;;7.77;;
8626;SDS011;4351;51.422;6.794;2023-08-30T01:20:13;11.93;;;8.93;;
8626;SDS011;4351;51.422;6.794;2023-08-30T01:22:47;12.10;;;8.47;;
8626;SDS011;4351;51.422;6.794;2023-08-30T01:25:25;14.67;;;9.80;;
8626;SDS011;4351;51.422;6.794;2023-08-30T01:28:03;13.20;;;10.47;;
8626;SDS011;4351;51.422;6.794;2023-08-30T01:30:33;12.73;;;9.67;;
8626;SDS011;4351;51.422;6.794;2023-08-30T01:33:04;11.87;;;9.20;;
8626;SDS011;4351;51.422;6.794;2023-08-30T01:35:33;13.20;;;10.33;;
8626;SDS011;4351;51.422;6.794;2023-08-30T01:38:06;12.37;;;10.07;;
8626;SDS011;4351;51.422;6.794;2023-08-30T01:40:37;12.33;;;10.47;;
8626;SDS011;4351;51.422;6.794;2023-08-30T01:43:08;15.10;;;10.87;;
8626;SDS011;4351;51.422;6.794;2023-08-30T01:45:39;10.67;;;9.57;;
8626;SDS011;4351;51.422;6.794;2023-08-30T01:48:10;12.67;;;9.70;;
8626;SDS011;4351;51.422;6.794;2023-08-30T01:50:40;11.20;;;9.53;;
8626;SDS011;4351;51.422;6.794;2023-08-30T01:53:09;10.60;;;8.90;;
8626;SDS011;4351;51.422;6.794;2023-08-30T01:55:39;12.87;;;10.50;;
8626;SDS011;4351;51.422;6.794;2023-08-30T01:58:09;13.50;;;10.67;;
8626;SDS011;4351;51.422;6.794;2023-08-30T02:00:38;14.10;;;10.57;;
8626;SDS011;4351;51.422;6.794;2023-08-30T02:03:07;12.30;;;10.07;;
8626;SDS011;4351;51.422;6.794;2023-08-30T02:05:36;13.27;;;11.10;;
8626;SDS011;4351;51.422;6.794;2023-08-30T02:08:09;12.90;;;10.70;;
8626;SDS011;4351;51.422;6.794;2023-08-30T02:10:43;14.03;;;10.53;;
8626;SDS011;4351;51.422;6.794;2023-08-30T02:13:18;17.33;;;11.20;;
8626;SDS011;4351;51.422;6.794;2023-08-30T02:15:48;18.77;;;13.17;;
8626;SDS011;4351;51.422;6.794;2023-08-30T02:18:19;15.10;;;12.37;;
8626;SDS011;4351;51.422;6.794;2023-08-30T02:20:51;15.23;;;12.80;;
8626;SDS011;4351;51.422;6.794;2023-08-30T02:23:19;15.63;;;12.23;;
8626;SDS011;4351;51.422;6.794;2023-08-30T02:25:50;13.87;;;11.57;;
8626;SDS011;4351;51.422;6.794;2023-08-30T02:28:22;15.53;;;11.43;;
8626;SDS011;4351;51.422;6.794;2023-08-30T02:30:50;14.17;;;11.70;;
8626;SDS011;4351;51.422;6.794;2023-08-30T02:33:20;15.93;;;13.00;;
8626;SDS011;4351;51.422;6.794;2023-08-30T02:35:48;16.17;;;13.07;;
8626;SDS011;4351;51.422;6.794;2023-08-30T02:38:16;17.23;;;14.00;;
8626;SDS011;4351;51.422;6.794;2023-08-30T02:40:44;18.10;;;13.83;;
8626;SDS011;4351;51.422;6.794;2023-08-30T02:43:12;17.30;;;14.03;;
8626;SDS011;4351;51.422;6.794;2023-08-30T02:45:42;18.27;;;14.63;;
8626;SDS011;4351;51.422;6.794;2023-08-30T02:48:10;18.30;;;14.57;;
8626;SDS011;4351;51.422;6.794;2023-08-30T02:50:40;15.93;;;13.27;;
8626;SDS011;4351;51.422;6.794;2023-08-30T02:53:08;19.13;;;14.00;;
8626;SDS011;4351;51.422;6.794;2023-08-30T02:55:36;19.70;;;13.43;;
8626;SDS011;4351;51.422;6.794;2023-08-30T02:58:04;18.33;;;14.50;;
8626;SDS011;4351;51.422;6.794;2023-08-30T03:00:32;18.60;;;14.33;;
8626;SDS011;4351;51.422;6.794;2023-08-30T03:03:02;19.07;;;15.90;;
8626;SDS011;4351;51.422;6.794;2023-08-30T03:05:31;16.80;;;14.53;;
8626;SDS011;4351;51.422;6.794;2023-08-30T03:08:00;17.57;;;14.07;;
8626;SDS011;4351;51.422;6.794;2023-08-30T03:10:28;17.07;;;14.03;;
8626;SDS011;4351;51.422;6.794;2023-08-30T03:12:56;15.30;;;13.23;;
8626;SDS011;4351;51.422;6.794;2023-08-30T03:15:24;16.60;;;13.43;;
8626;SDS011;4351;51.422;6.794;2023-08-30T03:17:52;16.50;;;13.73;;
8626;SDS011;4351;51.422;6.794;2023-08-30T03:20:21;21.13;;;15.07;;
8626;SDS011;4351;51.422;6.794;2023-08-30T03:22:49;17.63;;;13.20;;
8626;SDS011;4351;51.422;6.794;2023-08-30T03:25:17;17.57;;;14.40;;
8626;SDS011;4351;51.422;6.794;2023-08-30T03:27:45;17.50;;;13.70;;
8626;SDS011;4351;51.422;6.794;2023-08-30T03:30:13;19.97;;;15.07;;
8626;SDS011;4351;51.422;6.794;2023-08-30T03:32:42;19.50;;;14.93;;
8626;SDS011;4351;51.422;6.794;2023-08-30T03:35:10;19.10;;;14.80;;
8626;SDS011;4351;51.422;6.794;2023-08-30T03:37:39;17.60;;;14.20;;
8626;SDS011;4351;51.422;6.794;2023-08-30T03:40:07;17.40;;;13.60;;
8626;SDS011;4351;51.422;6.794;2023-08-30T03:42:36;19.57;;;14.23;;
8626;SDS011;4351;51.422;6.794;2023-08-30T03:45:04;17.27;;;14.00;;
8626;SDS011;4351;51.422;6.794;2023-08-30T03:47:32;18.30;;;14.90;;
8626;SDS011;4351;51.422;6.794;2023-08-30T03:50:00;20.07;;;16.07;;
8626;SDS011;4351;51.422;6.794;2023-08-30T03:52:28;16.37;;;13.60;;
8626;SDS011;4351;51.422;6.794;2023-08-30T03:54:57;21.03;;;15.13;;
8626;SDS011;4351;51.422;6.794;2023-08-30T03:57:25;17.67;;;14.70;;
8626;SDS011;4351;51.422;6.794;2023-08-30T03:59:54;17.97;;;15.30;;
8626;SDS011;4351;51.422;6.794;2023-08-30T04:02:22;16.63;;;13.80;;
8626;SDS011;4351;51.422;6.794;2023-08-30T04:04:50;17.20;;;13.87;;
8626;SDS011;4351;51.422;6.794;2023-08-30T04:07:18;17.33;;;14.13;;
8626;SDS011;4351;51.422;6.794;2023-08-30T04:09:47;18.03;;;15.13;;
8626;SDS011;4351;51.422;6.794;2023-08-30T04:12:16;15.80;;;12.90;;
8626;SDS011;4351;51.422;6.794;2023-08-30T04:14:44;17.80;;;13.83;;
8626;SDS011;4351;51.422;6.794;2023-08-30T04:17:12;18.83;;;14.73;;
8626;SDS011;4351;51.422;6.794;2023-08-30T04:19:40;16.93;;;14.57;;
8626;SDS011;4351;51.422;6.794;2023-08-30T04:22:08;17.10;;;13.37;;
8626;SDS011;4351;51.422;6.794;2023-08-30T04:24:36;18.50;;;15.27;;
8626;SDS011;4351;51.422;6.794;2023-08-30T04:27:04;17.27;;;13.50;;
8626;SDS011;4351;51.422;6.794;2023-08-30T04:29:34;17.17;;;14.27;;
8626;SDS011;4351;51.422;6.794;2023-08-30T04:32:02;20.43;;;15.23;;
8626;SDS011;4351;51.422;6.794;2023-08-30T04:34:30;26.67;;;20.67;;
8626;SDS011;4351;51.422;6.794;2023-08-30T04:36:58;19.83;;;15.57;;
8626;SDS011;4351;51.422;6.794;2023-08-30T04:39:26;21.07;;;15.00;;
8626;SDS011;4351;51.422;6.794;2023-08-30T04:41:54;21.57;;;14.83;;
8626;SDS011;4351;51.422;6.794;2023-08-30T04:44:22;20.83;;;16.30;;
8626;SDS011;4351;51.422;6.794;2023-08-30T04:46:53;22.20;;;15.93;;
8626;SDS011;4351;51.422;6.794;2023-08-30T04:49:22;20.93;;;17.27;;
8626;SDS011;4351;51.422;6.794;2023-08-30T04:51:51;26.53;;;17.80;;
8626;SDS011;4351;51.422;6.794;2023-08-30T04:54:19;24.63;;;17.47;;
8626;SDS011;4351;51.422;6.794;2023-08-30T04:56:47;29.23;;;21.60;;
8626;SDS011;4351;51.422;6.794;2023-08-30T04:59:15;24.40;;;17.57;;
8626;SDS011;4351;51.422;6.794;2023-08-30T05:01:46;20.63;;;16.43;;
8626;SDS011;4351;51.422;6.794;2023-08-30T05:04:17;24.27;;;17.10;;
8626;SDS011;4351;51.422;6.794;2023-08-30T05:06:44;22.07;;;16.03;;
8626;SDS011;4351;51.422;6.794;2023-08-30T05:09:13;23.67;;;17.33;;
8626;SDS011;4351;51.422;6.794;2023-08-30T05:11:42;22.37;;;16.37;;
8626;SDS011;4351;51.422;6.794;2023-08-30T05:14:10;20.60;;;16.60;;
8626;SDS011;4351;51.422;6.794;2023-08-30T05:16:39;20.73;;;16.30;;
8626;SDS011;4351;51.422;6.794;2023-08-30T05:19:07;26.63;;;20.23;;
8626;SDS011;4351;51.422;6.794;2023-08-30T05:21:37;19.83;;;16.50;;
8626;SDS011;4351;51.422;6.794;2023-08-30T05:24:05;24.07;;;17.97;;
8626;SDS011;4351;51.422;6.794;2023-08-30T05:26:33;22.53;;;16.90;;
8626;SDS011;4351;51.422;6.794;2023-08-30T05:29:01;23.53;;;18.43;;
8626;SDS011;4351;51.422;6.794;2023-08-30T05:31:29;24.30;;;18.63;;
8626;SDS011;4351;51.422;6.794;2023-08-30T05:34:20;24.67;;;18.50;;
8626;SDS011;4351;51.422;6.794;2023-08-30T05:37:10;25.20;;;18.70;;
8626;SDS011;4351;51.422;6.794;2023-08-30T05:39:56;23.97;;;18.83;;
8626;SDS011;4351;51.422;6.794;2023-08-30T05:42:24;24.57;;;19.53;;
8626;SDS011;4351;51.422;6.794;2023-08-30T05:44:55;28.13;;;20.23;;
8626;SDS011;4351;51.422;6.794;2023-08-30T05:47:23;27.80;;;20.33;;
8626;SDS011;4351;51.422;6.794;2023-08-30T05:49:51;24.43;;;19.10;;
8626;SDS011;4351;51.422;6.794;2023-08-30T05:52:20;25.60;;;19.50;;
8626;SDS011;4351;51.422;6.794;2023-08-30T05:54:48;29.10;;;20.53;;
8626;SDS011;4351;51.422;6.794;2023-08-30T05:57:17;24.70;;;20.60;;
8626;SDS011;4351;51.422;6.794;2023-08-30T05:59:45;27.83;;;19.83;;
8626;SDS011;4351;51.422;6.794;2023-08-30T06:02:12;24.37;;;18.67;;
8626;SDS011;4351;51.422;6.794;2023-08-30T06:04:40;24.07;;;18.37;;
8626;SDS011;4351;51.422;6.794;2023-08-30T06:07:08;25.47;;;19.37;;
8626;SDS011;4351;51.422;6.794;2023-08-30T06:09:37;28.67;;;20.03;;
8626;SDS011;4351;51.422;6.794;2023-08-30T06:12:05;28.60;;;20.43;;
8626;SDS011;4351;51.422;6.794;2023-08-30T06:14:34;26.23;;;20.13;;
8626;SDS011;4351;51.422;6.794;2023-08-30T06:17:01;27.57;;;18.93;;
8626;SDS011;4351;51.422;6.794;2023-08-30T06:19:29;25.93;;;20.10;;
8626;SDS011;4351;51.422;6.794;2023-08-30T06:21:57;25.70;;;19.07;;
8626;SDS011;4351;51.422;6.794;2023-08-30T06:24:25;24.50;;;19.97;;
8626;SDS011;4351;51.422;6.794;2023-08-30T06:26:54;26.23;;;20.53;;
8626;SDS011;4351;51.422;6.794;2023-08-30T06:29:22;24.80;;;18.57;;
8626;SDS011;4351;51.422;6.794;2023-08-30T06:31:50;23.43;;;18.53;;
8626;SDS011;4351;51.422;6.794;2023-08-30T06:34:18;31.97;;;20.20;;
8626;SDS011;4351;51.422;6.794;2023-08-30T06:36:46;26.57;;;20.60;;
8626;SDS011;4351;51.422;6.794;2023-08-30T06:39:14;27.60;;;19.80;;
8626;SDS011;4351;51.422;6.794;2023-08-30T06:41:42;23.83;;;17.77;;
8626;SDS011;4351;51.422;6.794;2023-08-30T06:44:14;24.50;;;19.80;;
8626;SDS011;4351;51.422;6.794;2023-08-30T06:46:43;29.07;;;20.30;;
8626;SDS011;4351;51.422;6.794;2023-08-30T06:49:11;25.13;;;19.13;;
8626;SDS011;4351;51.422;6.794;2023-08-30T06:51:39;29.53;;;18.97;;
8626;SDS011;4351;51.422;6.794;2023-08-30T06:54:06;27.93;;;20.77;;
8626;SDS011;4351;51.422;6.794;2023-08-30T06:56:34;24.60;;;20.40;;
8626;SDS011;4351;51.422;6.794;2023-08-30T06:59:02;25.87;;;19.30;;
8626;SDS011;4351;51.422;6.794;2023-08-30T07:01:32;23.47;;;19.10;;
8626;SDS011;4351;51.422;6.794;2023-08-30T07:04:02;23.00;;;18.50;;
8626;SDS011;4351;51.422;6.794;2023-08-30T07:06:30;23.30;;;18.00;;
8626;SDS011;4351;51.422;6.794;2023-08-30T07:08:58;24.93;;;17.87;;
8626;SDS011;4351;51.422;6.794;2023-08-30T07:11:26;23.83;;;18.73;;
8626;SDS011;4351;51.422;6.794;2023-08-30T07:14:00;27.20;;;17.80;;
8626;SDS011;4351;51.422;6.794;2023-08-30T07:16:28;21.13;;;18.03;;
8626;SDS011;4351;51.422;6.794;2023-08-30T07:18:59;21.50;;;16.93;;
8626;SDS011;4351;51.422;6.794;2023-08-30T07:21:28;21.37;;;16.63;;
8626;SDS011;4351;51.422;6.794;2023-08-30T07:23:56;19.37;;;16.77;;
8626;SDS011;4351;51.422;6.794;2023-08-30T07:26:24;19.83;;;16.43;;
8626;SDS011;4351;51.422;6.794;2023-08-30T07:28:52;18.07;;;15.13;;
8626;SDS011;4351;51.422;6.794;2023-08-30T07:31:20;19.07;;;14.87;;
8626;SDS011;4351;51.422;6.794;2023-08-30T07:33:48;18.17;;;14.17;;
8626;SDS011;4351;51.422;6.794;2023-08-30T07:36:17;18.90;;;14.40;;
8626;SDS011;4351;51.422;6.794;2023-08-30T07:38:49;18.70;;;14.93;;
8626;SDS011;4351;51.422;6.794;2023-08-30T07:41:17;22.17;;;14.73;;
8626;SDS011;4351;51.422;6.794;2023-08-30T07:43:45;16.97;;;13.13;;
8626;SDS011;4351;51.422;6.794;2023-08-30T07:46:13;14.87;;;12.80;;
8626;SDS011;4351;51.422;6.794;2023-08-30T07:48:41;14.87;;;12.40;;
8626;SDS011;4351;51.422;6.794;2023-08-30T07:51:09;15.10;;;11.83;;
8626;SDS011;4351;51.422;6.794;2023-08-30T07:53:38;17.90;;;11.40;;
8626;SDS011;4351;51.422;6.794;2023-08-30T07:56:06;13.77;;;11.17;;
8626;SDS011;4351;51.422;6.794;2023-08-30T07:58:35;13.77;;;12.00;;
8626;SDS011;4351;51.422;6.794;2023-08-30T08:01:02;18.47;;;10.53;;
8626;SDS011;4351;51.422;6.794;2023-08-30T08:03:31;13.30;;;10.17;;
8626;SDS011;4351;51.422;6.794;2023-08-30T08:05:59;12.27;;;10.17;;
8626;SDS011;4351;51.422;6.794;2023-08-30T08:08:27;12.77;;;8.93;;
8626;SDS011;4351;51.422;6.794;2023-08-30T08:10:58;12.43;;;9.27;;
8626;SDS011;4351;51.422;6.794;2023-08-30T08:13:26;15.03;;;10.40;;
8626;SDS011;4351;51.422;6.794;2023-08-30T08:15:55;12.07;;;9.03;;
8626;SDS011;4351;51.422;6.794;2023-08-30T08:18:23;11.70;;;9.17;;
8626;SDS011;4351;51.422;6.794;2023-08-30T08:20:53;13.83;;;10.00;;
8626;SDS011;4351;51.422;6.794;2023-08-30T08:23:21;13.47;;;9.30;;
8626;SDS011;4351;51.422;6.794;2023-08-30T08:25:49;10.07;;;7.30;;
8626;SDS011;4351;51.422;6.794;2023-08-30T08:28:25;9.27;;;7.50;;
8626;SDS011;4351;51.422;6.794;2023-08-30T08:30:53;13.40;;;7.57;;
8626;SDS011;4351;51.422;6.794;2023-08-30T08:33:21;10.93;;;5.87;;
8626;SDS011;4351;51.422;6.794;2023-08-30T08:35:50;6.37;;;5.37;;
8626;SDS011;4351;51.422;6.794;2023-08-30T08:38:18;9.03;;;5.93;;
8626;SDS011;4351;51.422;6.794;2023-08-30T08:40:46;8.60;;;5.40;;
8626;SDS011;4351;51.422;6.794;2023-08-30T08:43:16;7.83;;;4.87;;
8626;SDS011;4351;51.422;6.794;2023-08-30T08:45:47;8.10;;;5.60;;
8626;SDS011;4351;51.422;6.794;2023-08-30T08:48:17;6.87;;;5.30;;
8626;SDS011;4351;51.422;6.794;2023-08-30T08:50:45;8.83;;;5.40;;
8626;SDS011;4351;51.422;6.794;2023-08-30T08:53:13;7.07;;;5.43;;
8626;SDS011;4351;51.422;6.794;2023-08-30T08:55:41;6.73;;;5.10;;
8626;SDS011;4351;51.422;6.794;2023-08-30T08:58:12;8.73;;;5.50;;
8626;SDS011;4351;51.422;6.794;2023-08-30T09:00:42;9.87;;;5.27;;
8626;SDS011;4351;51.422;6.794;2023-08-30T09:03:12;6.80;;;4.67;;
8626;SDS011;4351;51.422;6.794;2023-08-30T09:05:42;8.33;;;5.33;;
8626;SDS011;4351;51.422;6.794;2023-08-30T09:08:10;8.80;;;5.30;;
8626;SDS011;4351;51.422;6.794;2023-08-30T09:10:39;7.33;;;4.97;;
8626;SDS011;4351;51.422;6.794;2023-08-30T09:13:08;9.20;;;5.20;;
8626;SDS011;4351;51.422;6.794;2023-08-30T09:15:36;8.33;;;4.53;;
8626;SDS011;4351;51.422;6.794;2023-08-30T09:18:13;9.33;;;5.00;;
8626;SDS011;4351;51.422;6.794;2023-08-30T09:20:43;9.37;;;4.80;;
8626;SDS011;4351;51.422;6.794;2023-08-30T09:23:18;8.63;;;4.60;;
8626;SDS011;4351;51.422;6.794;2023-08-30T09:25:46;8.43;;;4.90;;
8626;SDS011;4351;51.422;6.794;2023-08-30T09:28:22;7.70;;;5.50;;
8626;SDS011;4351;51.422;6.794;2023-08-30T09:30:51;8.23;;;5.50;;
8626;SDS011;4351;51.422;6.794;2023-08-30T09:33:22;10.10;;;5.60;;
8626;SDS011;4351;51.422;6.794;2023-08-30T09:35:50;11.40;;;6.23;;
8626;SDS011;4351;51.422;6.794;2023-08-30T09:38:18;8.97;;;6.17;;
8626;SDS011;4351;51.422;6.794;2023-08-30T09:40:46;9.70;;;6.70;;
8626;SDS011;4351;51.422;6.794;2023-08-30T09:43:17;7.37;;;5.97;;
8626;SDS011;4351;51.422;6.794;2023-08-30T09:45:48;8.60;;;6.30;;
8626;SDS011;4351;51.422;6.794;2023-08-30T09:48:16;9.63;;;6.37;;
8626;SDS011;4351;51.422;6.794;2023-08-30T09:50:50;10.17;;;6.60;;
8626;SDS011;4351;51.422;6.794;2023-08-30T09:53:21;9.03;;;6.20;;
8626;SDS011;4351;51.422;6.794;2023-08-30T09:55:52;14.00;;;8.27;;
8626;SDS011;4351;51.422;6.794;2023-08-30T09:58:22;8.43;;;6.97;;
8626;SDS011;4351;51.422;6.794;2023-08-30T10:00:53;8.60;;;6.43;;
8626;SDS011;4351;51.422;6.794;2023-08-30T10:03:22;12.20;;;7.33;;
8626;SDS011;4351;51.422;6.794;2023-08-30T10:05:58;11.80;;;8.03;;
8626;SDS011;4351;51.422;6.794;2023-08-30T10:08:27;8.63;;;7.00;;
8626;SDS011;4351;51.422;6.794;2023-08-30T10:10:57;10.03;;;8.10;;
8626;SDS011;4351;51.422;6.794;2023-08-30T10:13:26;9.77;;;7.27;;
8626;SDS011;4351;51.422;6.794;2023-08-30T10:15:57;14.73;;;8.60;;
8626;SDS011;4351;51.422;6.794;2023-08-30T10:18:31;13.90;;;8.80;;
8626;SDS011;4351;51.422;6.794;2023-08-30T10:21:06;11.73;;;8.03;;
8626;SDS011;4351;51.422;6.794;2023-08-30T10:23:39;10.97;;;7.30;;
8626;SDS011;4351;51.422;6.794;2023-08-30T10:26:08;10.97;;;7.60;;
8626;SDS011;4351;51.422;6.794;2023-08-30T10:28:36;11.10;;;6.90;;
8626;SDS011;4351;51.422;6.794;2023-08-30T10:31:06;10.83;;;8.17;;
8626;SDS011;4351;51.422;6.794;2023-08-30T10:33:43;8.90;;;7.13;;
8626;SDS011;4351;51.422;6.794;2023-08-30T10:36:21;11.23;;;8.30;;
8626;SDS011;4351;51.422;6.794;2023-08-30T10:38:50;13.37;;;9.60;;
8626;SDS011;4351;51.422;6.794;2023-08-30T10:41:19;11.20;;;7.73;;
8626;SDS011;4351;51.422;6.794;2023-08-30T10:43:49;16.63;;;10.03;;
8626;SDS011;4351;51.422;6.794;2023-08-30T10:46:29;11.97;;;7.93;;
8626;SDS011;4351;51.422;6.794;2023-08-30T10:49:07;12.03;;;7.40;;
8626;SDS011;4351;51.422;6.794;2023-08-30T10:51:38;9.00;;;7.00;;
8626;SDS011;4351;51.422;6.794;2023-08-30T10:54:12;7.87;;;6.80;;
8626;SDS011;4351;51.422;6.794;2023-08-30T10:56:45;10.40;;;7.70;;
8626;SDS011;4351;51.422;6.794;2023-08-30T10:59:17;15.20;;;8.60;;
8626;SDS011;4351;51.422;6.794;2023-08-30T11:01:46;9.10;;;7.97;;
8626;SDS011;4351;51.422;6.794;2023-08-30T11:04:15;9.30;;;7.63;;
8626;SDS011;4351;51.422;6.794;2023-08-30T11:06:46;11.60;;;8.70;;
8626;SDS011;4351;51.422;6.794;2023-08-30T11:09:14;13.07;;;8.47;;
8626;SDS011;4351;51.422;6.794;2023-08-30T11:11:44;11.03;;;8.90;;
8626;SDS011;4351;51.422;6.794;2023-08-30T11:14:13;8.03;;;7.23;;
8626;SDS011;4351;51.422;6.794;2023-08-30T11:16:42;12.70;;;8.33;;
8626;SDS011;4351;51.422;6.794;2023-08-30T11:19:10;10.67;;;8.33;;
8626;SDS011;4351;51.422;6.794;2023-08-30T11:21:39;8.30;;;7.40;;
8626;SDS011;4351;51.422;6.794;2023-08-30T11:24:10;11.83;;;7.30;;
8626;SDS011;4351;51.422;6.794;2023-08-30T11:26:38;8.77;;;6.33;;
8626;SDS011;4351;51.422;6.794;2023-08-30T11:29:07;9.27;;;5.43;;
8626;SDS011;4351;51.422;6.794;2023-08-30T11:31:35;7.90;;;6.40;;
8626;SDS011;4351;51.422;6.794;2023-08-30T11:34:03;8.90;;;5.47;;
8626;SDS011;4351;51.422;6.794;2023-08-30T11:36:31;6.57;;;4.80;;
8626;SDS011;4351;51.422;6.794;2023-08-30T11:39:02;9.77;;;5.00;;
8626;SDS011;4351;51.422;6.794;2023-08-30T11:41:32;8.30;;;5.87;;
8626;SDS011;4351;51.422;6.794;2023-08-30T11:44:00;8.40;;;6.50;;
8626;SDS011;4351;51.422;6.794;2023-08-30T11:46:29;8.40;;;6.53;;
8626;SDS011;4351;51.422;6.794;2023-08-30T11:48:57;8.93;;;6.73;;
8626;SDS011;4351;51.422;6.794;2023-08-30T11:51:25;10.13;;;6.23;;
8626;SDS011;4351;51.422;6.794;2023-08-30T11:53:54;9.83;;;6.60;;
8626;SDS011;4351;51.422;6.794;2023-08-30T11:56:22;8.47;;;5.83;;
8626;SDS011;4351;51.422;6.794;2023-08-30T11:58:51;7.13;;;5.20;;
8626;SDS011;4351;51.422;6.794;2023-08-30T12:01:19;13.87;;;8.33;;
8626;SDS011;4351;51.422;6.794;2023-08-30T12:03:47;8.73;;;6.00;;
8626;SDS011;4351;51.422;6.794;2023-08-30T12:06:17;8.43;;;5.53;;
8626;SDS011;4351;51.422;6.794;2023-08-30T12:08:45;8.60;;;5.30;;
8626;SDS011;4351;51.422;6.794;2023-08-30T12:11:19;10.10;;;7.20;;
8626;SDS011;4351;51.422;6.794;2023-08-30T12:13:47;10.97;;;6.53;;
8626;SDS011;4351;51.422;6.794;2023-08-30T12:16:16;11.03;;;7.67;;
8626;SDS011;4351;51.422;6.794;2023-08-30T12:18:45;8.73;;;6.70;;
8626;SDS011;4351;51.422;6.794;2023-08-30T12:21:13;8.00;;;5.83;;
8626;SDS011;4351;51.422;6.794;2023-08-30T12:23:41;6.80;;;5.10;;
8626;SDS011;4351;51.422;6.794;2023-08-30T12:26:10;7.27;;;4.77;;
8626;SDS011;4351;51.422;6.794;2023-08-30T12:28:38;5.47;;;4.47;;
8626;SDS011;4351;51.422;6.794;2023-08-30T12:31:07;6.03;;;5.10;;
8626;SDS011;4351;51.422;6.794;2023-08-30T12:33:37;8.10;;;4.83;;
8626;SDS011;4351;51.422;6.794;2023-08-30T12:36:06;5.53;;;3.97;;
8626;SDS011;4351;51.422;6.794;2023-08-30T12:38:34;6.90;;;4.50;;
8626;SDS011;4351;51.422;6.794;2023-08-30T12:41:02;6.20;;;4.93;;
8626;SDS011;4351;51.422;6.794;2023-08-30T12:43:31;6.27;;;4.07;;
8626;SDS011;4351;51.422;6.794;2023-08-30T12:45:59;5.97;;;4.90;;
8626;SDS011;4351;51.422;6.794;2023-08-30T12:48:28;6.60;;;4.53;;
8626;SDS011;4351;51.422;6.794;2023-08-30T12:50:58;5.70;;;4.03;;
8626;SDS011;4351;51.422;6.794;2023-08-30T12:53:25;5.97;;;4.77;;
8626;SDS011;4351;51.422;6.794;2023-08-30T12:55:53;5.10;;;3.93;;
8626;SDS011;4351;51.422;6.794;2023-08-30T12:58:21;8.33;;;4.93;;
8626;SDS011;4351;51.422;6.794;2023-08-30T13:00:49;6.90;;;5.27;;
8626;SDS011;4351;51.422;6.794;2023-08-30T13:03:17;9.43;;;5.00;;
8626;SDS011;4351;51.422;6.794;2023-08-30T13:05:45;4.93;;;4.43;;
8626;SDS011;4351;51.422;6.794;2023-08-30T13:08:14;6.60;;;4.73;;
8626;SDS011;4351;51.422;6.794;2023-08-30T13:10:42;7.83;;;5.20;;
8626;SDS011;4351;51.422;6.794;2023-08-30T13:13:10;8.47;;;5.20;;
8626;SDS011;4351;51.422;6.794;2023-08-30T13:15:38;6.87;;;5.10;;
8626;SDS011;4351;51.422;6.794;2023-08-30T13:18:06;8.30;;;5.20;;
8626;SDS011;4351;51.422;6.794;2023-08-30T13:20:37;8.00;;;5.40;;
8626;SDS011;4351;51.422;6.794;2023-08-30T13:23:08;9.03;;;5.23;;
8626;SDS011;4351;51.422;6.794;2023-08-30T13:25:39;6.73;;;4.90;;
8626;SDS011;4351;51.422;6.794;2023-08-30T13:28:07;7.50;;;5.20;;
8626;SDS011;4351;51.422;6.794;2023-08-30T13:30:35;7.07;;;5.03;;
8626;SDS011;4351;51.422;6.794;2023-08-30T13:33:03;6.70;;;5.10;;
8626;SDS011;4351;51.422;6.794;2023-08-30T13:35:31;6.20;;;5.27;;
8626;SDS011;4351;51.422;6.794;2023-08-30T13:37:59;5.80;;;4.60;;
8626;SDS011;4351;51.422;6.794;2023-08-30T13:40:27;8.80;;;6.13;;
8626;SDS011;4351;51.422;6.794;2023-08-30T13:42:57;5.87;;;4.80;;
8626;SDS011;4351;51.422;6.794;2023-08-30T13:45:24;5.33;;;4.23;;
8626;SDS011;4351;51.422;6.794;2023-08-30T13:47:52;5.63;;;4.33;;
8626;SDS011;4351;51.422;6.794;2023-08-30T13:50:21;5.90;;;4.60;;
8626;SDS011;4351;51.422;6.794;2023-08-30T13:52:49;6.07;;;4.30;;
8626;SDS011;4351;51.422;6.794;2023-08-30T13:55:17;5.97;;;4.50;;
8626;SDS011;4351;51.422;6.794;2023-08-30T13:57:45;8.90;;;5.70;;
8626;SDS011;4351;51.422;6.794;2023-08-30T14:00:15;5.30;;;3.90;;
8626;SDS011;4351;51.422;6.794;2023-08-30T14:02:43;7.73;;;4.83;;
8626;SDS011;4351;51.422;6.794;2023-08-30T14:05:11;4.60;;;3.80;;
8626;SDS011;4351;51.422;6.794;2023-08-30T14:07:39;6.23;;;4.47;;
8626;SDS011;4351;51.422;6.794;2023-08-30T14:10:07;9.10;;;4.87;;
8626;SDS011;4351;51.422;6.794;2023-08-30T14:12:35;5.60;;;3.80;;
8626;SDS011;4351;51.422;6.794;2023-08-30T14:15:03;5.97;;;4.13;;
8626;SDS011;4351;51.422;6.794;2023-08-30T14:17:33;5.10;;;3.50;;
8626;SDS011;4351;51.422;6.794;2023-08-30T14:20:01;6.23;;;3.60;;
8626;SDS011;4351;51.422;6.794;2023-08-30T14:22:29;6.87;;;4.07;;
8626;SDS011;4351;51.422;6.794;2023-08-30T14:24:57;6.17;;;3.80;;
8626;SDS011;4351;51.422;6.794;2023-08-30T14:27:38;5.90;;;4.73;;
8626;SDS011;4351;51.422;6.794;2023-08-30T14:30:06;5.37;;;3.73;;
8626;SDS011;4351;51.422;6.794;2023-08-30T14:32:36;6.10;;;4.43;;
8626;SDS011;4351;51.422;6.794;2023-08-30T14:35:04;4.23;;;3.80;;
8626;SDS011;4351;51.422;6.794;2023-08-30T14:37:32;5.50;;;4.03;;
8626;SDS011;4351;51.422;6.794;2023-08-30T14:40:02;4.87;;;3.80;;
8626;SDS011;4351;51.422;6.794;2023-08-30T14:42:30;8.53;;;4.63;;
8626;SDS011;4351;51.422;6.794;2023-08-30T14:44:59;6.87;;;4.50;;
8626;SDS011;4351;51.422;6.794;2023-08-30T14:47:29;5.47;;;4.20;;
8626;SDS011;4351;51.422;6.794;2023-08-30T14:49:59;7.17;;;4.70;;
8626;SDS011;4351;51.422;6.794;2023-08-30T14:52:28;7.97;;;5.00;;
8626;SDS011;4351;51.422;6.794;2023-08-30T14:54:56;6.37;;;4.80;;
8626;SDS011;4351;51.422;6.794;2023-08-30T14:57:24;6.17;;;4.80;;
8626;SDS011;4351;51.422;6.794;2023-08-30T14:59:52;7.97;;;5.13;;
8626;SDS011;4351;51.422;6.794;2023-08-30T15:02:20;10.57;;;5.57;;
8626;SDS011;4351;51.422;6.794;2023-08-30T15:04:49;7.37;;;5.40;;
8626;SDS011;4351;51.422;6.794;2023-08-30T15:07:19;6.73;;;5.33;;
8626;SDS011;4351;51.422;6.794;2023-08-30T15:09:47;7.20;;;5.87;;
8626;SDS011;4351;51.422;6.794;2023-08-30T15:12:16;5.50;;;4.77;;